createdAt,value
2022-11-30T00:00:59.643Z,9.11
2022-11-30T00:03:02.671Z,9.08
2022-11-30T00:05:06.749Z,9.12
2022-11-30T00:07:11.195Z,9.13
2022-11-30T00:09:16.269Z,9.13
2022-11-30T00:11:21.165Z,8.98
2022-11-30T00:13:24.709Z,9.02
2022-11-30T00:15:27.934Z,9.09
2022-11-30T00:17:30.994Z,9.12
2022-11-30T00:19:34.359Z,9.19
2022-11-30T00:21:37.189Z,9.22
2022-11-30T00:23:43.233Z,9.20
2022-11-30T00:25:46.090Z,9.10
2022-11-30T00:27:49.383Z,9.08
2022-11-30T00:29:52.466Z,9.09
2022-11-30T00:31:55.285Z,9.14
2022-11-30T00:33:58.382Z,9.12
2022-11-30T00:36:02.866Z,9.19
2022-11-30T00:38:05.867Z,9.21
2022-11-30T00:40:11.064Z,9.17
2022-11-30T00:42:13.972Z,9.17
2022-11-30T00:44:17.205Z,9.01
2022-11-30T00:46:20.178Z,9.04
2022-11-30T00:48:23.667Z,9.10
2022-11-30T00:50:26.758Z,9.15
2022-11-30T00:52:30.222Z,9.19
2022-11-30T00:54:33.341Z,9.20
2022-11-30T00:56:37.562Z,9.11
2022-11-30T00:58:40.738Z,9.19
2022-11-30T01:00:44.110Z,9.21
2022-11-30T01:02:47.104Z,9.22
2022-11-30T01:04:49.955Z,9.19
2022-11-30T01:06:52.893Z,9.20
2022-11-30T01:08:55.830Z,9.23
2022-11-30T01:11:06.348Z,9.24
2022-11-30T01:13:16.182Z,9.23
2022-11-30T01:15:19.237Z,9.12
2022-11-30T01:17:22.166Z,9.21
2022-11-30T01:19:25.552Z,9.04
2022-11-30T01:21:29.651Z,8.97
2022-11-30T01:23:32.508Z,8.93
2022-11-30T01:25:35.745Z,8.84
2022-11-30T01:27:38.816Z,9.00
2022-11-30T01:29:43.005Z,8.97
2022-11-30T01:31:46.336Z,9.05
2022-11-30T01:33:53.100Z,9.11
2022-11-30T01:36:04.093Z,9.13
2022-11-30T01:38:07.183Z,9.07
2022-11-30T01:40:12.247Z,9.15
2022-11-30T01:42:17.579Z,9.16
2022-11-30T01:44:53.721Z,9.18
2022-11-30T01:47:00.754Z,9.16
2022-11-30T01:49:07.863Z,9.21
2022-11-30T01:51:10.687Z,9.19
2022-11-30T01:53:14.115Z,9.18
2022-11-30T01:55:20.416Z,9.22
2022-11-30T01:57:28.624Z,9.23
2022-11-30T01:59:31.505Z,9.22
2022-11-30T02:01:35.028Z,9.25
2022-11-30T02:03:42.825Z,9.25
2022-11-30T02:05:45.876Z,9.25
2022-11-30T02:07:48.863Z,9.23
2022-11-30T02:09:51.830Z,9.25
2022-11-30T02:11:55.570Z,9.28
2022-11-30T02:14:12.070Z,9.28
2022-11-30T02:16:22.183Z,9.19
2022-11-30T02:18:28.445Z,9.22
2022-11-30T02:20:48.156Z,9.16
2022-11-30T02:23:04.125Z,9.12
2022-11-30T02:25:11.598Z,9.08
2022-11-30T02:27:21.457Z,9.08
2022-11-30T02:29:26.948Z,9.07
2022-11-30T02:31:33.407Z,9.03
2022-11-30T02:33:37.222Z,8.97
2022-11-30T02:35:42.746Z,8.94
2022-11-30T02:37:46.815Z,8.94
2022-11-30T02:39:49.731Z,8.87
2022-11-30T02:41:52.758Z,8.88
2022-11-30T02:43:55.693Z,8.91
2022-11-30T02:46:05.055Z,8.93
2022-11-30T02:48:10.078Z,8.89
2022-11-30T02:50:16.532Z,8.78
2022-11-30T02:52:20.878Z,8.82
2022-11-30T02:54:24.353Z,8.79
2022-11-30T02:56:27.241Z,8.67
2022-11-30T02:58:30.487Z,8.72
2022-11-30T03:00:33.530Z,8.62
2022-11-30T03:02:37.803Z,8.62
2022-11-30T03:04:40.659Z,8.54
2022-11-30T03:06:43.784Z,8.48
2022-11-30T03:08:46.815Z,8.44
2022-11-30T03:10:49.762Z,8.44
2022-11-30T03:12:52.638Z,8.41
2022-11-30T03:14:55.477Z,8.42
2022-11-30T03:16:58.507Z,8.35
2022-11-30T03:19:02.739Z,8.32
2022-11-30T03:21:07.261Z,8.27
2022-11-30T03:23:10.545Z,8.27
2022-11-30T03:25:13.465Z,8.26
2022-11-30T03:27:16.376Z,8.22
2022-11-30T03:29:19.329Z,8.26
2022-11-30T03:31:22.598Z,8.28
2022-11-30T03:33:25.779Z,8.27
2022-11-30T03:35:30.075Z,8.27
2022-11-30T03:37:33.000Z,8.25
2022-11-30T03:39:35.815Z,8.23
2022-11-30T03:41:39.051Z,8.11
2022-11-30T03:43:42.058Z,7.73
2022-11-30T03:45:46.614Z,7.64
2022-11-30T03:47:49.500Z,7.83
2022-11-30T03:49:52.726Z,7.82
2022-11-30T03:51:57.001Z,7.72
2022-11-30T03:53:59.938Z,7.72
2022-11-30T03:56:04.930Z,7.77
2022-11-30T03:58:07.899Z,7.73
2022-11-30T04:00:12.455Z,7.81
2022-11-30T04:02:15.571Z,7.85
2022-11-30T04:04:18.448Z,7.83
2022-11-30T04:06:22.090Z,7.78
2022-11-30T04:08:27.283Z,7.74
2022-11-30T04:10:30.278Z,7.85
2022-11-30T04:12:33.260Z,7.88
2022-11-30T04:14:36.122Z,7.91
2022-11-30T04:16:39.317Z,7.91
2022-11-30T04:18:42.374Z,7.77
2022-11-30T04:20:45.337Z,7.79
2022-11-30T04:22:48.289Z,7.86
2022-11-30T04:24:52.474Z,7.88
2022-11-30T04:26:55.325Z,7.85
2022-11-30T04:29:00.336Z,7.79
2022-11-30T04:31:06.593Z,7.89
2022-11-30T04:33:09.781Z,7.89
2022-11-30T04:35:12.645Z,7.90
2022-11-30T04:37:15.548Z,7.79
2022-11-30T04:39:18.580Z,7.88
2022-11-30T04:41:22.825Z,7.95
2022-11-30T04:43:26.338Z,7.96
2022-11-30T04:45:35.016Z,7.98
2022-11-30T04:47:38.326Z,7.99
2022-11-30T04:49:41.511Z,7.99
2022-11-30T04:51:44.437Z,7.99
2022-11-30T04:53:47.335Z,7.99
2022-11-30T04:55:50.386Z,8.00
2022-11-30T04:57:54.632Z,7.98
2022-11-30T04:59:57.519Z,7.97
2022-11-30T05:02:00.486Z,7.96
2022-11-30T05:04:03.551Z,7.95
2022-11-30T05:06:07.126Z,7.97
2022-11-30T05:08:10.526Z,7.97
2022-11-30T05:10:13.661Z,7.95
2022-11-30T05:12:16.591Z,7.95
2022-11-30T05:14:21.242Z,7.78
2022-11-30T05:16:24.523Z,7.61
2022-11-30T05:18:27.369Z,7.76
2022-11-30T05:20:30.530Z,7.64
2022-11-30T05:22:35.301Z,7.79
2022-11-30T05:24:38.276Z,7.83
2022-11-30T05:26:41.665Z,7.88
2022-11-30T05:28:44.797Z,7.92
2022-11-30T05:30:49.475Z,7.94
2022-11-30T05:32:54.393Z,7.95
2022-11-30T05:34:57.901Z,7.85
2022-11-30T05:37:01.373Z,7.91
2022-11-30T05:39:04.804Z,7.91
2022-11-30T05:41:08.005Z,7.98
2022-11-30T05:43:11.002Z,7.98
2022-11-30T05:45:13.906Z,7.88
2022-11-30T05:47:18.565Z,7.90
2022-11-30T05:49:22.077Z,7.78
2022-11-30T05:51:25.216Z,7.81
2022-11-30T05:53:28.208Z,7.87
2022-11-30T05:55:32.402Z,7.78
2022-11-30T05:57:37.381Z,7.68
2022-11-30T05:59:40.343Z,7.78
2022-11-30T06:01:43.627Z,7.59
2022-11-30T06:03:48.834Z,7.72
2022-11-30T06:05:52.860Z,7.74
2022-11-30T06:07:56.693Z,7.66
2022-11-30T06:09:59.716Z,7.80
2022-11-30T06:12:03.617Z,7.80
2022-11-30T06:14:06.936Z,7.84
2022-11-30T06:16:11.304Z,7.66
2022-11-30T06:18:14.496Z,7.39
2022-11-30T06:20:19.070Z,7.36
2022-11-30T06:22:22.806Z,7.38
2022-11-30T06:24:26.212Z,7.41
2022-11-30T06:26:29.501Z,7.41
2022-11-30T06:28:32.638Z,7.48
2022-11-30T06:30:35.579Z,7.53
2022-11-30T06:32:39.289Z,7.43
2022-11-30T06:34:42.171Z,7.53
2022-11-30T06:36:46.685Z,7.57
2022-11-30T06:38:49.689Z,7.59
2022-11-30T06:40:52.866Z,7.57
2022-11-30T06:42:56.044Z,7.41
2022-11-30T06:44:59.496Z,7.48
2022-11-30T06:47:02.652Z,7.47
2022-11-30T06:49:06.347Z,7.45
2022-11-30T06:51:10.533Z,7.51
2022-11-30T06:53:14.976Z,7.59
2022-11-30T06:55:17.998Z,7.63
2022-11-30T06:57:21.292Z,7.60
2022-11-30T06:59:24.372Z,7.69
2022-11-30T07:01:27.269Z,7.66
2022-11-30T07:03:30.210Z,7.65
2022-11-30T07:05:34.743Z,7.53
2022-11-30T07:07:37.699Z,7.64
2022-11-30T07:09:42.864Z,7.66
2022-11-30T07:11:46.399Z,7.66
2022-11-30T07:13:49.711Z,7.62
2022-11-30T07:15:52.860Z,7.58
2022-11-30T07:17:56.075Z,7.64
2022-11-30T07:19:59.070Z,7.74
2022-11-30T07:22:02.174Z,7.72
2022-11-30T07:24:23.080Z,7.71
2022-11-30T07:26:28.849Z,7.76
2022-11-30T07:28:32.820Z,7.80
2022-11-30T07:30:35.717Z,7.81
2022-11-30T07:32:38.610Z,7.83
2022-11-30T07:34:41.935Z,7.85
2022-11-30T07:36:45.264Z,7.82
2022-11-30T07:38:48.628Z,7.82
2022-11-30T07:40:51.561Z,7.79
2022-11-30T07:42:58.134Z,7.83
2022-11-30T07:45:01.306Z,7.89
2022-11-30T07:47:04.228Z,7.89
2022-11-30T07:49:08.000Z,7.89
2022-11-30T07:51:14.399Z,7.81
2022-11-30T07:53:17.490Z,7.87
2022-11-30T07:55:23.552Z,7.92
2022-11-30T07:57:26.830Z,7.94
2022-11-30T07:59:31.104Z,7.96
2022-11-30T08:01:34.961Z,7.97
2022-11-30T08:03:38.627Z,7.99
2022-11-30T08:05:41.973Z,8.01
2022-11-30T08:07:45.784Z,8.02
2022-11-30T08:09:49.273Z,8.02
2022-11-30T08:11:52.337Z,8.05
2022-11-30T08:13:55.599Z,8.00
2022-11-30T08:16:04.120Z,8.03
2022-11-30T08:18:07.196Z,8.08
2022-11-30T08:20:12.013Z,8.10
2022-11-30T08:22:15.210Z,8.10
2022-11-30T08:24:18.351Z,8.16
2022-11-30T08:26:23.255Z,8.12
2022-11-30T08:28:26.177Z,8.04
2022-11-30T08:30:32.457Z,8.04
2022-11-30T08:32:37.066Z,7.85
2022-11-30T08:34:40.007Z,8.00
2022-11-30T08:36:47.126Z,8.00
2022-11-30T08:38:54.167Z,8.03
2022-11-30T08:40:58.157Z,8.06
2022-11-30T08:43:01.074Z,8.06
2022-11-30T08:45:04.419Z,8.06
2022-11-30T08:47:07.575Z,8.09
2022-11-30T08:49:21.660Z,8.13
2022-11-30T08:51:27.487Z,8.14
2022-11-30T08:53:30.753Z,8.13
2022-11-30T08:55:33.625Z,8.19
2022-11-30T08:57:36.711Z,8.21
2022-11-30T08:59:39.664Z,8.24
2022-11-30T09:01:43.046Z,8.24
2022-11-30T09:03:47.268Z,8.25
2022-11-30T09:05:51.683Z,8.22
2022-11-30T09:07:54.677Z,8.16
2022-11-30T09:09:57.894Z,8.21
2022-11-30T09:12:01.102Z,8.21
2022-11-30T09:14:05.617Z,8.23
2022-11-30T09:16:09.081Z,8.26
2022-11-30T09:18:13.181Z,8.14
2022-11-30T09:20:16.925Z,8.19
2022-11-30T09:22:21.851Z,8.28
2022-11-30T09:24:25.367Z,8.21
2022-11-30T09:26:28.242Z,8.24
2022-11-30T09:28:31.695Z,8.28
2022-11-30T09:30:34.676Z,8.25
2022-11-30T09:32:37.669Z,8.27
2022-11-30T09:34:40.854Z,8.27
2022-11-30T09:36:44.137Z,8.30
2022-11-30T09:38:49.316Z,8.30
2022-11-30T09:40:55.686Z,8.25
2022-11-30T09:43:02.467Z,8.34
2022-11-30T09:45:09.759Z,8.37
2022-11-30T09:47:22.876Z,8.40
2022-11-30T09:49:30.667Z,8.41
2022-11-30T09:51:46.050Z,8.44
2022-11-30T09:53:54.471Z,8.45
2022-11-30T09:55:57.491Z,8.47
2022-11-30T09:58:03.066Z,8.46
2022-11-30T10:00:12.614Z,8.52
2022-11-30T10:02:18.459Z,8.53
2022-11-30T10:04:23.905Z,8.53
2022-11-30T10:06:31.831Z,8.53
2022-11-30T10:08:50.910Z,8.54
2022-11-30T10:11:02.148Z,8.54
2022-11-30T10:13:13.962Z,8.43
2022-11-30T10:15:29.635Z,8.44
2022-11-30T10:17:42.514Z,8.48
2022-11-30T10:20:00.102Z,8.52
2022-11-30T10:22:10.419Z,8.53
2022-11-30T10:24:31.050Z,8.52
2022-11-30T10:26:38.216Z,8.49
2022-11-30T10:28:48.943Z,8.51
2022-11-30T10:30:52.189Z,8.48
2022-11-30T10:32:56.090Z,8.45
2022-11-30T10:35:03.367Z,8.42
2022-11-30T10:37:13.975Z,8.33
2022-11-30T10:39:20.720Z,8.40
2022-11-30T10:41:26.351Z,8.33
2022-11-30T10:43:34.104Z,8.41
2022-11-30T10:45:41.623Z,8.43
2022-11-30T10:47:47.835Z,8.41
2022-11-30T10:49:52.751Z,8.37
2022-11-30T10:52:01.845Z,8.35
2022-11-30T10:54:15.007Z,8.37
2022-11-30T10:56:17.925Z,8.40
2022-11-30T10:58:23.356Z,8.39
2022-11-30T11:00:27.655Z,8.29
2022-11-30T11:02:39.590Z,8.34
2022-11-30T11:04:42.649Z,8.27
2022-11-30T11:06:47.586Z,8.34
2022-11-30T11:08:51.008Z,8.40
2022-11-30T11:10:54.034Z,8.37
2022-11-30T11:12:57.579Z,8.41
2022-11-30T11:15:10.053Z,8.46
2022-11-30T11:17:26.166Z,8.52
2022-11-30T11:19:35.285Z,8.47
2022-11-30T11:21:38.157Z,8.33
2022-11-30T11:23:42.332Z,8.42
2022-11-30T11:25:45.221Z,8.38
2022-11-30T11:27:52.961Z,8.48
2022-11-30T11:30:03.008Z,8.32
2022-11-30T11:32:20.400Z,8.41
2022-11-30T11:34:27.069Z,8.48
2022-11-30T11:36:31.659Z,8.48
2022-11-30T11:38:43.634Z,8.44
2022-11-30T11:40:56.222Z,8.41
2022-11-30T11:43:00.466Z,8.40
2022-11-30T11:45:05.962Z,8.28
2022-11-30T11:47:09.216Z,8.33
2022-11-30T11:49:22.513Z,8.35
2022-11-30T11:51:32.987Z,8.31
2022-11-30T11:53:47.313Z,8.36
2022-11-30T11:55:57.619Z,8.35
2022-11-30T11:58:02.282Z,8.34
2022-11-30T12:00:15.878Z,8.33
2022-11-30T12:02:25.013Z,8.28
2022-11-30T12:04:48.065Z,8.35
2022-11-30T12:06:54.128Z,8.35
2022-11-30T12:08:59.344Z,8.20
2022-11-30T12:11:05.053Z,8.21
2022-11-30T12:13:14.274Z,8.31
2022-11-30T12:15:17.378Z,8.24
2022-11-30T12:17:31.222Z,8.18
2022-11-30T12:19:38.434Z,7.95
2022-11-30T12:25:23.045Z,8.10
2022-11-30T12:27:31.511Z,8.13
2022-11-30T12:29:43.469Z,8.06
2022-11-30T12:31:58.532Z,8.11
2022-11-30T12:34:08.896Z,8.20
2022-11-30T12:36:17.143Z,8.20
2022-11-30T12:38:27.841Z,8.12
2022-11-30T12:40:36.977Z,8.23
2022-11-30T12:42:45.050Z,8.18
2022-11-30T12:44:52.934Z,8.19
2022-11-30T12:47:02.166Z,8.21
2022-11-30T12:49:17.256Z,8.09
2022-11-30T12:51:29.404Z,8.13
2022-11-30T12:53:36.353Z,8.10
2022-11-30T12:55:44.791Z,8.13
2022-11-30T12:57:53.093Z,8.15
2022-11-30T13:00:03.275Z,8.09
2022-11-30T13:02:21.673Z,8.17
2022-11-30T13:04:28.508Z,8.10
2022-11-30T13:06:34.364Z,8.02
2022-11-30T13:08:45.719Z,7.98
2022-11-30T13:10:52.993Z,7.85
2022-11-30T13:12:57.401Z,7.96
2022-11-30T13:15:02.389Z,8.03
2022-11-30T13:17:07.113Z,8.02
2022-11-30T13:19:21.865Z,8.07
2022-11-30T13:21:28.256Z,8.09
2022-11-30T13:23:35.944Z,8.09
2022-11-30T13:28:14.445Z,8.14
2022-11-30T13:30:28.016Z,8.13
2022-11-30T13:34:56.034Z,8.14
2022-11-30T13:37:04.118Z,8.14
2022-11-30T13:39:21.546Z,8.13
2022-11-30T13:41:24.483Z,8.04
2022-11-30T13:43:31.108Z,8.11
2022-11-30T13:45:35.034Z,8.12
2022-11-30T13:47:40.963Z,8.09
2022-11-30T13:49:44.216Z,7.94
2022-11-30T13:52:01.449Z,7.85
2022-11-30T13:54:41.549Z,8.00
2022-11-30T13:56:48.562Z,7.96
2022-11-30T13:59:28.989Z,7.94
2022-11-30T14:01:33.397Z,7.92
2022-11-30T14:03:38.473Z,7.94
2022-11-30T14:05:42.714Z,7.95
2022-11-30T14:07:46.835Z,7.94
2022-11-30T14:10:25.287Z,8.03
2022-11-30T14:12:59.727Z,8.08
2022-11-30T14:15:03.779Z,8.07
2022-11-30T14:17:14.469Z,8.04
2022-11-30T14:19:17.486Z,8.00
2022-11-30T14:21:26.046Z,8.02
2022-11-30T14:23:33.003Z,7.55
2022-11-30T14:25:36.416Z,7.80
2022-11-30T14:27:39.440Z,7.78
2022-11-30T14:29:42.367Z,7.77
2022-11-30T14:31:52.869Z,7.81
2022-11-30T14:34:00.126Z,7.82
2022-11-30T14:36:03.360Z,7.83
2022-11-30T14:38:16.789Z,7.90
2022-11-30T14:40:24.615Z,7.88
2022-11-30T14:42:29.005Z,7.87
2022-11-30T14:44:36.534Z,7.88
2022-11-30T14:46:39.808Z,7.83
2022-11-30T14:48:44.766Z,7.82
2022-11-30T14:50:51.246Z,7.79
2022-11-30T14:53:01.748Z,7.58
2022-11-30T14:55:14.336Z,7.72
2022-11-30T14:57:23.147Z,7.67
2022-11-30T14:59:41.663Z,7.56
2022-11-30T15:01:44.929Z,7.58
2022-11-30T15:03:49.725Z,7.67
2022-11-30T15:05:55.631Z,7.67
2022-11-30T15:07:58.928Z,7.47
2022-11-30T15:10:05.029Z,7.63
2022-11-30T15:12:08.418Z,7.51
2022-11-30T15:14:12.435Z,7.60
2022-11-30T15:16:21.389Z,7.53
2022-11-30T15:18:25.525Z,7.57
2022-11-30T15:20:45.840Z,7.51
2022-11-30T15:22:50.479Z,7.40
2022-11-30T15:24:53.420Z,7.56
2022-11-30T15:26:58.256Z,7.62
2022-11-30T15:29:04.355Z,7.64
2022-11-30T15:31:09.723Z,7.62
2022-11-30T15:33:18.519Z,7.61
2022-11-30T15:35:23.561Z,7.65
2022-11-30T15:37:30.913Z,7.60
2022-11-30T15:39:35.312Z,7.65
2022-11-30T15:41:38.276Z,7.61
2022-11-30T15:43:41.368Z,7.64
2022-11-30T15:45:53.863Z,7.63
2022-11-30T15:47:58.267Z,7.61
2022-11-30T15:50:01.381Z,7.61
2022-11-30T15:52:09.127Z,7.60
2022-11-30T15:54:12.073Z,7.65
2022-11-30T15:56:25.868Z,7.67
2022-11-30T15:58:31.724Z,7.68
2022-11-30T16:00:34.611Z,7.69
2022-11-30T16:02:38.992Z,7.48
2022-11-30T16:05:19.923Z,7.59
2022-11-30T16:07:27.290Z,7.48
2022-11-30T16:09:33.665Z,7.53
2022-11-30T16:11:38.436Z,7.56
2022-11-30T16:13:42.223Z,7.61
2022-11-30T16:15:47.626Z,7.61
2022-11-30T16:17:51.223Z,7.61
2022-11-30T16:19:54.298Z,7.60
2022-11-30T16:21:57.411Z,7.58
2022-11-30T16:24:00.669Z,7.49
2022-11-30T16:26:03.835Z,7.43
2022-11-30T16:28:09.519Z,7.47
2022-11-30T16:30:16.498Z,7.52
2022-11-30T16:32:19.717Z,7.52
2022-11-30T16:34:22.727Z,7.55
2022-11-30T16:36:25.595Z,7.55
2022-11-30T16:38:29.335Z,7.53
2022-11-30T16:40:38.561Z,7.56
2022-11-30T16:42:42.118Z,7.54
2022-11-30T16:44:46.384Z,7.53
2022-11-30T16:46:49.227Z,7.51
2022-11-30T16:48:54.707Z,7.48
2022-11-30T16:50:57.964Z,7.45
2022-11-30T16:53:00.842Z,7.17
2022-11-30T16:55:04.085Z,7.30
2022-11-30T16:57:08.184Z,7.27
2022-11-30T16:59:16.469Z,7.27
2022-11-30T17:01:23.941Z,7.29
2022-11-30T17:03:29.264Z,7.25
2022-11-30T17:05:32.673Z,7.08
2022-11-30T17:07:37.722Z,7.12
2022-11-30T17:09:40.660Z,7.09
2022-11-30T17:11:45.442Z,7.01
2022-11-30T17:13:48.378Z,6.95
2022-11-30T17:15:51.814Z,7.00
2022-11-30T17:17:59.234Z,7.09
2022-11-30T17:20:02.945Z,7.13
2022-11-30T17:22:05.846Z,7.20
2022-11-30T17:24:08.930Z,7.09
2022-11-30T17:26:12.385Z,7.16
2022-11-30T17:28:15.266Z,7.23
2022-11-30T17:30:20.566Z,7.21
2022-11-30T17:32:23.434Z,7.22
2022-11-30T17:34:27.713Z,7.22
2022-11-30T17:36:30.668Z,7.22
2022-11-30T17:38:34.544Z,7.17
2022-11-30T17:40:41.811Z,7.15
2022-11-30T17:42:44.798Z,7.04
2022-11-30T17:44:47.956Z,7.13
2022-11-30T17:46:51.404Z,7.07
2022-11-30T17:48:55.061Z,7.01
2022-11-30T17:50:59.401Z,7.09
2022-11-30T17:53:04.862Z,7.13
2022-11-30T17:55:08.888Z,6.95
2022-11-30T17:57:12.549Z,7.03
2022-11-30T17:59:16.317Z,7.13
2022-11-30T18:01:20.944Z,7.16
2022-11-30T18:03:23.931Z,7.17
2022-11-30T18:05:27.053Z,7.17
2022-11-30T18:07:31.587Z,7.03
2022-11-30T18:09:40.841Z,7.17
2022-11-30T18:11:45.495Z,7.21
2022-11-30T18:13:51.579Z,7.10
2022-11-30T18:15:54.452Z,7.14
2022-11-30T18:18:01.240Z,7.24
2022-11-30T18:20:04.527Z,7.23
2022-11-30T18:22:07.647Z,7.25
2022-11-30T18:24:12.655Z,7.25
2022-11-30T18:26:16.750Z,7.25
2022-11-30T18:28:19.819Z,7.16
2022-11-30T18:30:24.386Z,7.29
2022-11-30T18:32:27.266Z,7.30
2022-11-30T18:34:30.367Z,7.29
2022-11-30T18:36:33.951Z,7.20
2022-11-30T18:38:38.818Z,7.20
2022-11-30T18:40:43.431Z,7.19
2022-11-30T18:42:48.936Z,7.26
2022-11-30T18:44:51.817Z,7.23
2022-11-30T18:46:54.715Z,7.28
2022-11-30T18:48:59.132Z,7.28
2022-11-30T18:51:10.889Z,7.34
2022-11-30T18:53:18.084Z,7.25
2022-11-30T18:55:21.492Z,7.28
2022-11-30T18:57:26.224Z,7.19
2022-11-30T18:59:29.533Z,7.30
2022-11-30T19:01:33.348Z,7.32
2022-11-30T19:03:36.692Z,7.30
2022-11-30T19:05:40.825Z,7.30
2022-11-30T19:07:43.801Z,7.15
2022-11-30T19:09:47.131Z,7.19
2022-11-30T19:11:50.237Z,7.34
2022-11-30T19:13:56.257Z,7.28
2022-11-30T19:16:02.773Z,7.26
2022-11-30T19:18:06.076Z,7.33
2022-11-30T19:20:09.799Z,7.36
2022-11-30T19:22:12.880Z,7.37
2022-11-30T19:24:16.011Z,7.34
2022-11-30T19:26:18.899Z,7.27
2022-11-30T19:28:22.316Z,7.29
2022-11-30T19:30:27.458Z,7.32
2022-11-30T19:32:30.771Z,7.26
2022-11-30T19:34:33.774Z,7.18
2022-11-30T19:36:37.034Z,7.19
2022-11-30T19:38:40.167Z,7.19
2022-11-30T19:40:43.070Z,7.20
2022-11-30T19:42:46.006Z,7.24
2022-11-30T19:44:50.528Z,7.23
2022-11-30T19:46:55.192Z,7.26
2022-11-30T19:49:00.734Z,7.23
2022-11-30T19:51:10.933Z,7.22
2022-11-30T19:53:16.557Z,7.24
2022-11-30T19:55:19.652Z,7.07
2022-11-30T19:57:23.814Z,7.10
2022-11-30T19:59:26.957Z,7.14
2022-11-30T20:01:29.895Z,6.96
2022-11-30T20:03:36.049Z,6.94
2022-11-30T20:05:39.308Z,7.00
2022-11-30T20:07:42.517Z,7.13
2022-11-30T20:09:45.700Z,7.01
2022-11-30T20:11:48.893Z,7.07
2022-11-30T20:13:52.390Z,7.12
2022-11-30T20:15:56.440Z,7.14
2022-11-30T20:17:59.374Z,7.19
2022-11-30T20:20:03.760Z,7.12
2022-11-30T20:22:09.405Z,7.18
2022-11-30T20:24:12.804Z,7.06
2022-11-30T20:26:17.421Z,7.08
2022-11-30T20:28:20.475Z,7.11
2022-11-30T20:30:23.781Z,7.12
2022-11-30T20:32:27.403Z,7.11
2022-11-30T20:34:34.677Z,7.08
2022-11-30T20:36:41.077Z,6.99
2022-11-30T20:38:44.483Z,7.04
2022-11-30T20:40:47.980Z,7.03
2022-11-30T20:42:52.642Z,6.96
2022-11-30T20:44:58.787Z,7.01
2022-11-30T20:47:01.806Z,7.04
2022-11-30T20:49:05.965Z,7.07
2022-11-30T20:51:34.028Z,7.04
2022-11-30T20:53:37.289Z,7.00
2022-11-30T20:55:40.499Z,6.92
2022-11-30T20:57:43.395Z,6.95
2022-11-30T20:59:46.397Z,6.92
2022-11-30T21:01:49.399Z,7.03
2022-11-30T21:03:52.711Z,7.05
2022-11-30T21:05:55.890Z,7.09
2022-11-30T21:07:58.990Z,7.08
2022-11-30T21:10:03.919Z,7.03
2022-11-30T21:12:07.529Z,7.06
2022-11-30T21:14:10.984Z,7.06
2022-11-30T21:16:14.935Z,7.10
2022-11-30T21:18:18.180Z,7.05
2022-11-30T21:20:21.051Z,7.05
2022-11-30T21:22:24.162Z,7.04
2022-11-30T21:24:27.120Z,7.07
2022-11-30T21:26:32.707Z,7.12
2022-11-30T21:28:38.422Z,7.07
2022-11-30T21:30:41.420Z,7.12
2022-11-30T21:32:44.335Z,7.15
2022-11-30T21:34:47.728Z,7.12
2022-11-30T21:36:52.261Z,7.13
2022-11-30T21:39:01.006Z,7.07
2022-11-30T21:41:07.248Z,7.02
2022-11-30T21:43:11.698Z,7.06
2022-11-30T21:45:14.911Z,7.09
2022-11-30T21:47:18.238Z,6.89
2022-11-30T21:49:21.176Z,7.01
2022-11-30T21:51:26.094Z,7.05
2022-11-30T21:53:29.507Z,6.90
2022-11-30T21:55:33.500Z,6.93
2022-11-30T21:57:36.983Z,6.96
2022-11-30T21:59:41.569Z,6.96
2022-11-30T22:01:45.785Z,6.99
2022-11-30T22:03:49.206Z,6.95
2022-11-30T22:06:02.341Z,7.01
2022-11-30T22:08:06.035Z,6.88
2022-11-30T22:10:09.586Z,6.95
2022-11-30T22:12:12.531Z,6.95
2022-11-30T22:14:17.109Z,6.98
2022-11-30T22:16:22.583Z,6.81
2022-11-30T22:18:25.551Z,6.94
2022-11-30T22:20:28.402Z,6.92
2022-11-30T22:22:31.745Z,6.82
2022-11-30T22:24:34.680Z,6.83
2022-11-30T22:26:40.295Z,6.94
2022-11-30T22:28:44.890Z,6.94
2022-11-30T22:30:47.932Z,6.91
2022-11-30T22:32:53.172Z,6.88
2022-11-30T22:34:56.196Z,6.95
2022-11-30T22:36:59.149Z,6.92
2022-11-30T22:39:03.507Z,6.86
2022-11-30T22:41:07.395Z,6.91
2022-11-30T22:43:10.285Z,6.79
2022-11-30T22:45:13.132Z,6.91
2022-11-30T22:47:17.627Z,6.80
2022-11-30T22:49:23.018Z,6.87
2022-11-30T22:51:28.251Z,6.89
2022-11-30T22:53:31.318Z,6.95
2022-11-30T22:55:34.452Z,6.92
2022-11-30T22:57:37.651Z,6.92
2022-11-30T22:59:40.485Z,6.96
2022-11-30T23:01:45.089Z,6.92
2022-11-30T23:03:49.073Z,6.93
2022-11-30T23:05:53.531Z,6.96
2022-11-30T23:07:56.439Z,7.05
2022-11-30T23:09:59.351Z,7.09
2022-11-30T23:12:02.235Z,7.16
2022-11-30T23:14:08.093Z,7.09
2022-11-30T23:16:12.006Z,7.01
2022-11-30T23:18:15.207Z,7.04
2022-11-30T23:20:18.127Z,6.93
2022-11-30T23:22:22.772Z,7.04
2022-11-30T23:24:25.619Z,7.05
2022-11-30T23:26:30.558Z,7.08
2022-11-30T23:28:33.739Z,7.06
2022-11-30T23:30:36.671Z,7.06
2022-11-30T23:32:39.695Z,7.17
2022-11-30T23:34:44.938Z,7.02
2022-11-30T23:36:51.368Z,7.13
2022-11-30T23:38:58.624Z,7.17
2022-11-30T23:41:05.475Z,7.23
2022-11-30T23:43:08.530Z,7.20
2022-11-30T23:45:12.657Z,7.15
2022-11-30T23:47:18.417Z,7.17
2022-11-30T23:49:21.727Z,7.24
2022-11-30T23:51:25.552Z,7.20
2022-11-30T23:53:29.472Z,7.09
2022-11-30T23:55:36.026Z,7.14
2022-11-30T23:57:39.265Z,7.09
2022-11-30T23:59:42.131Z,7.08
